ePrivacy and GPDR Cookie Consent by Cookie Consent
EmailTwitter


Surface observations / United States / KJFK (74486)

Regions: Quebec | Canada | USA | Europe | France | UK | Elsewhere
Station
Display
Info & Location for KJFK (74486) | Help decoding METAR

Weather Conditions observed on 2022/12/05 at 13:51 UTC at NEW YORK/JF KENN, NY (KJFK)

Sky conditions: few clouds.

Temperature: 4.0 Celsius.

Dewpoint: -4.0 Celsius.

Relative Humidity: 56%

Windchill Factor 1.

Winds: West-southwest at 11 km/h or 6 knots.

Mean Sea level Pressure: 102.61 kilopascals.

Altimeter Setting (QNH): 102.61 kilopascals or 30.30 inches of mercury.

Horizontal visibility: 10.00 statute miles or 16.00 kilometers.

Coded METAR:

KJFK 051351Z 25006KT 10SM FEW250 04/M04 A3030 RMK AO2 SLP261 T00441039=